Hlavní strana
METAR-TAF:

METAR-TAF

Letiště :

Ashland, Kentucky, Spojené státy americké

zeměpisná šířka: 38-33-16N, zeměpisná délka: 082-44-17W, výška: 166 m

Aktuální stav počasí

Zpráva byla vytvořena před 30 minutami, v 03:56 UTC
Bezvětří
Teplota 13°C
Vlhkost vzduchu 67%
Tlak 1016 hPa
Viditelnost: 16.1 km
Zataženo ve výšce 3700 ft

METAR: KDWU 220356Z AUTO 00000KT 10SM OVC037 13/07 A3000 RMK AO2 SLP162 T01330067 401390017

Čas: 23:26 (04:26 UTC)


TAF: chybějící

Stav a předpovědi počasí z více než 4 000 letišť (zprávy METAR a TAF).

Červené a žluté tečky na mapě představují dostupné meteorologické stanice.

Když kurzor umístíte na tečku, zobrazí se název stanice.

Pak kliknutím zobrazíte stav a předpověď počasí.

Chcete-li změnit mapu, kliknutím na zelené tlačítko se znaménkem +mapu přiblížíte, kliknutím na zelené tlačítko se znaménkem – mapu oddálíte a kliknutím na zelené šipky přejdete na sousední mapy.


METAR-TAF: